sensor_id;sensor_type;location;lat;lon;timestamp;P1;durP1;ratioP1;P2;durP2;ratioP2
27857;SDS011;16852;51.446;6.528;2022-11-15T00:00:59;13.90;;;6.97;;
27857;SDS011;16852;51.446;6.528;2022-11-15T00:03:00;13.80;;;7.20;;
27857;SDS011;16852;51.446;6.528;2022-11-15T00:05:00;9.38;;;6.47;;
27857;SDS011;16852;51.446;6.528;2022-11-15T00:07:01;10.77;;;7.32;;
27857;SDS011;16852;51.446;6.528;2022-11-15T00:09:02;11.20;;;6.63;;
27857;SDS011;16852;51.446;6.528;2022-11-15T00:11:03;11.63;;;7.55;;
27857;SDS011;16852;51.446;6.528;2022-11-15T00:13:04;8.65;;;6.13;;
27857;SDS011;16852;51.446;6.528;2022-11-15T00:15:08;9.73;;;6.95;;
27857;SDS011;16852;51.446;6.528;2022-11-15T00:17:09;10.18;;;6.43;;
27857;SDS011;16852;51.446;6.528;2022-11-15T00:19:10;11.30;;;7.15;;
27857;SDS011;16852;51.446;6.528;2022-11-15T00:21:11;12.15;;;6.88;;
27857;SDS011;16852;51.446;6.528;2022-11-15T00:23:13;10.70;;;7.25;;
27857;SDS011;16852;51.446;6.528;2022-11-15T00:25:13;10.52;;;6.40;;
27857;SDS011;16852;51.446;6.528;2022-11-15T00:27:14;12.13;;;6.95;;
27857;SDS011;16852;51.446;6.528;2022-11-15T00:29:14;12.88;;;6.57;;
27857;SDS011;16852;51.446;6.528;2022-11-15T00:31:15;10.48;;;6.65;;
27857;SDS011;16852;51.446;6.528;2022-11-15T00:33:15;10.63;;;6.72;;
27857;SDS011;16852;51.446;6.528;2022-11-15T00:35:16;11.23;;;6.47;;
27857;SDS011;16852;51.446;6.528;2022-11-15T00:37:18;11.35;;;6.63;;
27857;SDS011;16852;51.446;6.528;2022-11-15T00:39:18;10.38;;;6.32;;
27857;SDS011;16852;51.446;6.528;2022-11-15T00:41:19;12.80;;;7.57;;
27857;SDS011;16852;51.446;6.528;2022-11-15T00:43:19;9.63;;;6.47;;
27857;SDS011;16852;51.446;6.528;2022-11-15T00:45:20;10.30;;;6.13;;
27857;SDS011;16852;51.446;6.528;2022-11-15T00:47:20;9.98;;;6.68;;
27857;SDS011;16852;51.446;6.528;2022-11-15T00:49:21;12.05;;;6.82;;
27857;SDS011;16852;51.446;6.528;2022-11-15T00:51:22;10.43;;;6.40;;
27857;SDS011;16852;51.446;6.528;2022-11-15T00:53:22;11.40;;;6.97;;
27857;SDS011;16852;51.446;6.528;2022-11-15T00:55:23;11.60;;;6.10;;
27857;SDS011;16852;51.446;6.528;2022-11-15T00:57:23;9.88;;;5.85;;
27857;SDS011;16852;51.446;6.528;2022-11-15T00:59:24;10.63;;;6.57;;
27857;SDS011;16852;51.446;6.528;2022-11-15T01:01:24;10.25;;;5.95;;
27857;SDS011;16852;51.446;6.528;2022-11-15T01:03:25;9.55;;;5.55;;
27857;SDS011;16852;51.446;6.528;2022-11-15T01:05:25;10.88;;;6.53;;
27857;SDS011;16852;51.446;6.528;2022-11-15T01:07:26;13.82;;;6.55;;
27857;SDS011;16852;51.446;6.528;2022-11-15T01:09:26;9.35;;;6.18;;
27857;SDS011;16852;51.446;6.528;2022-11-15T01:11:27;10.80;;;6.18;;
27857;SDS011;16852;51.446;6.528;2022-11-15T01:13:31;11.82;;;6.93;;
27857;SDS011;16852;51.446;6.528;2022-11-15T01:15:33;12.18;;;6.55;;
27857;SDS011;16852;51.446;6.528;2022-11-15T01:17:33;9.27;;;6.05;;
27857;SDS011;16852;51.446;6.528;2022-11-15T01:19:34;9.60;;;6.18;;
27857;SDS011;16852;51.446;6.528;2022-11-15T01:21:35;8.23;;;5.65;;
27857;SDS011;16852;51.446;6.528;2022-11-15T01:23:35;9.77;;;6.45;;
27857;SDS011;16852;51.446;6.528;2022-11-15T01:25:36;7.47;;;5.40;;
27857;SDS011;16852;51.446;6.528;2022-11-15T01:27:37;8.63;;;5.75;;
27857;SDS011;16852;51.446;6.528;2022-11-15T01:29:37;9.27;;;5.47;;
27857;SDS011;16852;51.446;6.528;2022-11-15T01:31:38;7.88;;;5.35;;
27857;SDS011;16852;51.446;6.528;2022-11-15T01:33:38;8.18;;;5.15;;
27857;SDS011;16852;51.446;6.528;2022-11-15T01:35:39;7.38;;;5.20;;
27857;SDS011;16852;51.446;6.528;2022-11-15T01:37:40;9.15;;;5.10;;
27857;SDS011;16852;51.446;6.528;2022-11-15T01:39:40;9.77;;;5.70;;
27857;SDS011;16852;51.446;6.528;2022-11-15T01:41:41;9.00;;;5.72;;
27857;SDS011;16852;51.446;6.528;2022-11-15T01:43:41;11.40;;;6.07;;
27857;SDS011;16852;51.446;6.528;2022-11-15T01:45:42;8.05;;;5.25;;
27857;SDS011;16852;51.446;6.528;2022-11-15T01:47:53;9.18;;;5.68;;
27857;SDS011;16852;51.446;6.528;2022-11-15T01:49:57;10.15;;;6.03;;
27857;SDS011;16852;51.446;6.528;2022-11-15T01:52:03;9.90;;;6.00;;
27857;SDS011;16852;51.446;6.528;2022-11-15T01:54:08;9.75;;;5.13;;
27857;SDS011;16852;51.446;6.528;2022-11-15T01:56:15;7.95;;;5.20;;
27857;SDS011;16852;51.446;6.528;2022-11-15T01:58:24;7.68;;;5.25;;
27857;SDS011;16852;51.446;6.528;2022-11-15T02:00:25;10.02;;;5.90;;
27857;SDS011;16852;51.446;6.528;2022-11-15T02:02:25;10.48;;;5.78;;
27857;SDS011;16852;51.446;6.528;2022-11-15T02:04:27;8.70;;;5.68;;
27857;SDS011;16852;51.446;6.528;2022-11-15T02:06:30;9.98;;;5.20;;
27857;SDS011;16852;51.446;6.528;2022-11-15T02:08:30;9.15;;;5.57;;
27857;SDS011;16852;51.446;6.528;2022-11-15T02:10:31;8.80;;;5.03;;
27857;SDS011;16852;51.446;6.528;2022-11-15T02:12:32;8.60;;;5.63;;
27857;SDS011;16852;51.446;6.528;2022-11-15T02:14:33;8.48;;;5.88;;
27857;SDS011;16852;51.446;6.528;2022-11-15T02:19:13;6.97;;;4.88;;
27857;SDS011;16852;51.446;6.528;2022-11-15T02:21:51;6.50;;;4.88;;
27857;SDS011;16852;51.446;6.528;2022-11-15T02:29:19;7.22;;;5.07;;
27857;SDS011;16852;51.446;6.528;2022-11-15T02:31:57;8.35;;;5.55;;
27857;SDS011;16852;51.446;6.528;2022-11-15T02:34:09;7.72;;;5.55;;
27857;SDS011;16852;51.446;6.528;2022-11-15T02:36:36;10.68;;;5.55;;
27857;SDS011;16852;51.446;6.528;2022-11-15T02:40:57;10.25;;;5.68;;
27857;SDS011;16852;51.446;6.528;2022-11-15T02:43:10;7.22;;;5.30;;
27857;SDS011;16852;51.446;6.528;2022-11-15T02:45:33;8.52;;;5.43;;
27857;SDS011;16852;51.446;6.528;2022-11-15T02:47:41;9.18;;;5.03;;
27857;SDS011;16852;51.446;6.528;2022-11-15T02:49:47;6.18;;;4.82;;
27857;SDS011;16852;51.446;6.528;2022-11-15T02:51:49;7.90;;;5.22;;
27857;SDS011;16852;51.446;6.528;2022-11-15T02:53:52;8.25;;;5.40;;
27857;SDS011;16852;51.446;6.528;2022-11-15T02:55:53;6.80;;;5.13;;
27857;SDS011;16852;51.446;6.528;2022-11-15T02:58:01;10.27;;;5.47;;
27857;SDS011;16852;51.446;6.528;2022-11-15T03:00:10;7.53;;;4.88;;
27857;SDS011;16852;51.446;6.528;2022-11-15T03:02:37;7.68;;;4.95;;
27857;SDS011;16852;51.446;6.528;2022-11-15T03:07:23;7.90;;;5.13;;
27857;SDS011;16852;51.446;6.528;2022-11-15T03:09:50;7.22;;;4.53;;
27857;SDS011;16852;51.446;6.528;2022-11-15T03:11:59;7.80;;;5.00;;
27857;SDS011;16852;51.446;6.528;2022-11-15T03:14:30;17.52;;;5.25;;
27857;SDS011;16852;51.446;6.528;2022-11-15T03:16:46;6.13;;;4.47;;
27857;SDS011;16852;51.446;6.528;2022-11-15T03:18:57;9.73;;;5.00;;
27857;SDS011;16852;51.446;6.528;2022-11-15T03:21:05;6.88;;;4.45;;
27857;SDS011;16852;51.446;6.528;2022-11-15T03:23:09;7.72;;;4.63;;
27857;SDS011;16852;51.446;6.528;2022-11-15T03:25:12;8.52;;;4.28;;
27857;SDS011;16852;51.446;6.528;2022-11-15T03:27:17;9.18;;;5.05;;
27857;SDS011;16852;51.446;6.528;2022-11-15T03:29:22;7.07;;;4.72;;
27857;SDS011;16852;51.446;6.528;2022-11-15T03:31:27;6.13;;;4.32;;
27857;SDS011;16852;51.446;6.528;2022-11-15T03:33:49;8.15;;;4.85;;
27857;SDS011;16852;51.446;6.528;2022-11-15T03:35:53;7.85;;;5.00;;
27857;SDS011;16852;51.446;6.528;2022-11-15T03:40:23;9.73;;;4.70;;
27857;SDS011;16852;51.446;6.528;2022-11-15T03:42:46;9.23;;;4.80;;
27857;SDS011;16852;51.446;6.528;2022-11-15T03:44:59;11.13;;;4.70;;
27857;SDS011;16852;51.446;6.528;2022-11-15T03:47:11;8.95;;;5.20;;
27857;SDS011;16852;51.446;6.528;2022-11-15T03:49:25;7.22;;;4.75;;
27857;SDS011;16852;51.446;6.528;2022-11-15T03:51:29;8.57;;;4.38;;
27857;SDS011;16852;51.446;6.528;2022-11-15T03:53:30;7.28;;;4.97;;
27857;SDS011;16852;51.446;6.528;2022-11-15T03:55:31;7.10;;;4.32;;
27857;SDS011;16852;51.446;6.528;2022-11-15T03:57:33;7.85;;;5.07;;
27857;SDS011;16852;51.446;6.528;2022-11-15T03:59:33;8.23;;;4.50;;
27857;SDS011;16852;51.446;6.528;2022-11-15T04:01:34;8.95;;;4.90;;
27857;SDS011;16852;51.446;6.528;2022-11-15T04:03:34;8.23;;;4.82;;
27857;SDS011;16852;51.446;6.528;2022-11-15T04:05:35;10.30;;;5.60;;
27857;SDS011;16852;51.446;6.528;2022-11-15T04:07:35;7.97;;;5.03;;
27857;SDS011;16852;51.446;6.528;2022-11-15T04:09:36;9.65;;;5.22;;
27857;SDS011;16852;51.446;6.528;2022-11-15T04:11:55;7.05;;;4.95;;
27857;SDS011;16852;51.446;6.528;2022-11-15T04:13:56;8.15;;;5.03;;
27857;SDS011;16852;51.446;6.528;2022-11-15T04:15:57;6.65;;;4.55;;
27857;SDS011;16852;51.446;6.528;2022-11-15T04:17:57;5.88;;;4.53;;
27857;SDS011;16852;51.446;6.528;2022-11-15T04:19:58;8.60;;;4.70;;
27857;SDS011;16852;51.446;6.528;2022-11-15T04:22:17;7.97;;;4.88;;
27857;SDS011;16852;51.446;6.528;2022-11-15T04:24:36;6.20;;;4.32;;
27857;SDS011;16852;51.446;6.528;2022-11-15T04:26:37;8.55;;;4.75;;
27857;SDS011;16852;51.446;6.528;2022-11-15T04:28:37;6.47;;;4.43;;
27857;SDS011;16852;51.446;6.528;2022-11-15T04:30:58;8.07;;;4.72;;
27857;SDS011;16852;51.446;6.528;2022-11-15T04:32:59;7.80;;;5.20;;
27857;SDS011;16852;51.446;6.528;2022-11-15T04:35:00;6.93;;;4.45;;
27857;SDS011;16852;51.446;6.528;2022-11-15T04:37:00;6.55;;;4.97;;
27857;SDS011;16852;51.446;6.528;2022-11-15T04:39:13;9.00;;;5.13;;
27857;SDS011;16852;51.446;6.528;2022-11-15T04:41:13;8.75;;;5.38;;
27857;SDS011;16852;51.446;6.528;2022-11-15T04:43:14;7.28;;;4.88;;
27857;SDS011;16852;51.446;6.528;2022-11-15T04:45:15;7.35;;;5.18;;
27857;SDS011;16852;51.446;6.528;2022-11-15T04:47:15;7.07;;;4.78;;
27857;SDS011;16852;51.446;6.528;2022-11-15T04:49:16;7.22;;;4.88;;
27857;SDS011;16852;51.446;6.528;2022-11-15T04:51:16;5.90;;;4.43;;
27857;SDS011;16852;51.446;6.528;2022-11-15T04:53:17;7.78;;;5.60;;
27857;SDS011;16852;51.446;6.528;2022-11-15T04:55:18;8.13;;;4.90;;
27857;SDS011;16852;51.446;6.528;2022-11-15T04:57:19;6.03;;;4.65;;
27857;SDS011;16852;51.446;6.528;2022-11-15T04:59:20;8.15;;;4.90;;
27857;SDS011;16852;51.446;6.528;2022-11-15T05:01:20;7.80;;;5.40;;
27857;SDS011;16852;51.446;6.528;2022-11-15T05:03:21;11.07;;;5.10;;
27857;SDS011;16852;51.446;6.528;2022-11-15T05:05:40;6.25;;;4.93;;
27857;SDS011;16852;51.446;6.528;2022-11-15T05:07:41;6.70;;;4.70;;
27857;SDS011;16852;51.446;6.528;2022-11-15T05:09:42;8.18;;;5.47;;
27857;SDS011;16852;51.446;6.528;2022-11-15T05:11:43;6.40;;;5.03;;
27857;SDS011;16852;51.446;6.528;2022-11-15T05:13:43;9.82;;;5.13;;
27857;SDS011;16852;51.446;6.528;2022-11-15T05:15:44;6.85;;;5.05;;
27857;SDS011;16852;51.446;6.528;2022-11-15T05:17:44;6.82;;;4.72;;
27857;SDS011;16852;51.446;6.528;2022-11-15T05:19:45;6.95;;;4.43;;
27857;SDS011;16852;51.446;6.528;2022-11-15T05:21:46;6.28;;;4.32;;
27857;SDS011;16852;51.446;6.528;2022-11-15T05:23:47;6.55;;;4.28;;
27857;SDS011;16852;51.446;6.528;2022-11-15T05:25:48;8.07;;;4.85;;
27857;SDS011;16852;51.446;6.528;2022-11-15T05:27:48;6.45;;;4.47;;
27857;SDS011;16852;51.446;6.528;2022-11-15T05:29:49;5.95;;;4.60;;
27857;SDS011;16852;51.446;6.528;2022-11-15T05:31:49;6.35;;;4.25;;
27857;SDS011;16852;51.446;6.528;2022-11-15T05:33:50;6.78;;;4.78;;
27857;SDS011;16852;51.446;6.528;2022-11-15T05:35:54;8.52;;;4.43;;
27857;SDS011;16852;51.446;6.528;2022-11-15T05:38:17;7.05;;;4.93;;
27857;SDS011;16852;51.446;6.528;2022-11-15T05:40:18;6.68;;;4.10;;
27857;SDS011;16852;51.446;6.528;2022-11-15T05:42:18;7.88;;;4.78;;
27857;SDS011;16852;51.446;6.528;2022-11-15T05:44:20;6.88;;;4.43;;
27857;SDS011;16852;51.446;6.528;2022-11-15T05:46:23;5.82;;;4.05;;
27857;SDS011;16852;51.446;6.528;2022-11-15T05:48:24;5.90;;;4.18;;
27857;SDS011;16852;51.446;6.528;2022-11-15T05:50:24;5.95;;;4.25;;
27857;SDS011;16852;51.446;6.528;2022-11-15T05:52:27;7.13;;;3.92;;
27857;SDS011;16852;51.446;6.528;2022-11-15T05:54:31;8.68;;;4.45;;
27857;SDS011;16852;51.446;6.528;2022-11-15T05:56:33;6.60;;;4.38;;
27857;SDS011;16852;51.446;6.528;2022-11-15T05:58:34;7.10;;;4.75;;
27857;SDS011;16852;51.446;6.528;2022-11-15T06:00:35;5.82;;;4.28;;
27857;SDS011;16852;51.446;6.528;2022-11-15T06:02:36;7.63;;;4.53;;
27857;SDS011;16852;51.446;6.528;2022-11-15T06:04:36;6.03;;;4.50;;
27857;SDS011;16852;51.446;6.528;2022-11-15T06:06:37;7.13;;;4.60;;
27857;SDS011;16852;51.446;6.528;2022-11-15T06:08:38;6.70;;;4.72;;
27857;SDS011;16852;51.446;6.528;2022-11-15T06:10:38;7.72;;;5.05;;
27857;SDS011;16852;51.446;6.528;2022-11-15T06:12:39;8.35;;;4.97;;
27857;SDS011;16852;51.446;6.528;2022-11-15T06:14:39;6.57;;;4.53;;
27857;SDS011;16852;51.446;6.528;2022-11-15T06:16:40;6.90;;;4.60;;
27857;SDS011;16852;51.446;6.528;2022-11-15T06:18:40;6.57;;;4.20;;
27857;SDS011;16852;51.446;6.528;2022-11-15T06:20:41;6.45;;;4.20;;
27857;SDS011;16852;51.446;6.528;2022-11-15T06:22:41;6.43;;;4.20;;
27857;SDS011;16852;51.446;6.528;2022-11-15T06:24:42;7.40;;;4.53;;
27857;SDS011;16852;51.446;6.528;2022-11-15T06:26:43;6.85;;;4.43;;
27857;SDS011;16852;51.446;6.528;2022-11-15T06:28:44;8.00;;;4.28;;
27857;SDS011;16852;51.446;6.528;2022-11-15T06:30:45;8.63;;;4.50;;
27857;SDS011;16852;51.446;6.528;2022-11-15T06:32:45;4.80;;;4.10;;
27857;SDS011;16852;51.446;6.528;2022-11-15T06:34:46;7.55;;;4.35;;
27857;SDS011;16852;51.446;6.528;2022-11-15T06:36:46;7.65;;;4.05;;
27857;SDS011;16852;51.446;6.528;2022-11-15T06:38:47;8.50;;;3.83;;
27857;SDS011;16852;51.446;6.528;2022-11-15T06:40:48;8.27;;;4.60;;
27857;SDS011;16852;51.446;6.528;2022-11-15T06:42:48;6.38;;;3.67;;
27857;SDS011;16852;51.446;6.528;2022-11-15T06:44:49;7.85;;;4.90;;
27857;SDS011;16852;51.446;6.528;2022-11-15T06:46:49;6.43;;;3.95;;
27857;SDS011;16852;51.446;6.528;2022-11-15T06:48:50;5.65;;;3.72;;
27857;SDS011;16852;51.446;6.528;2022-11-15T06:50:53;6.45;;;4.40;;
27857;SDS011;16852;51.446;6.528;2022-11-15T06:52:54;4.97;;;3.72;;
27857;SDS011;16852;51.446;6.528;2022-11-15T06:54:55;6.05;;;3.70;;
27857;SDS011;16852;51.446;6.528;2022-11-15T06:56:55;5.95;;;3.72;;
27857;SDS011;16852;51.446;6.528;2022-11-15T06:58:56;6.35;;;4.18;;
27857;SDS011;16852;51.446;6.528;2022-11-15T07:01:03;5.38;;;3.55;;
27857;SDS011;16852;51.446;6.528;2022-11-15T07:03:05;3.92;;;3.30;;
27857;SDS011;16852;51.446;6.528;2022-11-15T07:05:06;5.75;;;4.03;;
27857;SDS011;16852;51.446;6.528;2022-11-15T07:07:07;4.53;;;3.28;;
27857;SDS011;16852;51.446;6.528;2022-11-15T07:09:07;7.45;;;3.63;;
27857;SDS011;16852;51.446;6.528;2022-11-15T07:11:08;6.18;;;3.42;;
27857;SDS011;16852;51.446;6.528;2022-11-15T07:13:09;5.70;;;4.00;;
27857;SDS011;16852;51.446;6.528;2022-11-15T07:15:10;5.22;;;3.55;;
27857;SDS011;16852;51.446;6.528;2022-11-15T07:17:10;5.00;;;3.40;;
27857;SDS011;16852;51.446;6.528;2022-11-15T07:19:11;5.57;;;3.45;;
27857;SDS011;16852;51.446;6.528;2022-11-15T07:21:11;4.43;;;3.28;;
27857;SDS011;16852;51.446;6.528;2022-11-15T07:23:12;6.30;;;3.80;;
27857;SDS011;16852;51.446;6.528;2022-11-15T07:25:13;7.32;;;3.60;;
27857;SDS011;16852;51.446;6.528;2022-11-15T07:27:13;5.38;;;3.50;;
27857;SDS011;16852;51.446;6.528;2022-11-15T07:29:14;6.80;;;3.63;;
27857;SDS011;16852;51.446;6.528;2022-11-15T07:31:15;5.78;;;3.25;;
27857;SDS011;16852;51.446;6.528;2022-11-15T07:33:15;6.85;;;3.58;;
27857;SDS011;16852;51.446;6.528;2022-11-15T07:35:16;4.13;;;2.97;;
27857;SDS011;16852;51.446;6.528;2022-11-15T07:37:16;5.60;;;2.35;;
27857;SDS011;16852;51.446;6.528;2022-11-15T07:39:17;3.65;;;2.50;;
27857;SDS011;16852;51.446;6.528;2022-11-15T07:41:18;2.22;;;1.85;;
27857;SDS011;16852;51.446;6.528;2022-11-15T07:43:18;2.45;;;2.00;;
27857;SDS011;16852;51.446;6.528;2022-11-15T07:45:19;5.05;;;1.90;;
27857;SDS011;16852;51.446;6.528;2022-11-15T07:47:21;2.35;;;1.50;;
27857;SDS011;16852;51.446;6.528;2022-11-15T07:49:21;2.42;;;1.60;;
27857;SDS011;16852;51.446;6.528;2022-11-15T07:51:22;2.67;;;1.80;;
27857;SDS011;16852;51.446;6.528;2022-11-15T07:53:23;3.20;;;2.00;;
27857;SDS011;16852;51.446;6.528;2022-11-15T07:55:24;3.88;;;1.98;;
27857;SDS011;16852;51.446;6.528;2022-11-15T07:57:25;3.63;;;1.73;;
27857;SDS011;16852;51.446;6.528;2022-11-15T07:59:26;2.25;;;1.58;;
27857;SDS011;16852;51.446;6.528;2022-11-15T08:01:26;2.97;;;1.88;;
27857;SDS011;16852;51.446;6.528;2022-11-15T08:03:27;3.35;;;1.80;;
27857;SDS011;16852;51.446;6.528;2022-11-15T08:05:29;2.55;;;1.88;;
27857;SDS011;16852;51.446;6.528;2022-11-15T08:07:29;4.17;;;1.97;;
27857;SDS011;16852;51.446;6.528;2022-11-15T08:09:31;5.38;;;2.00;;
27857;SDS011;16852;51.446;6.528;2022-11-15T08:11:31;2.63;;;1.95;;
27857;SDS011;16852;51.446;6.528;2022-11-15T08:13:32;4.22;;;1.83;;
27857;SDS011;16852;51.446;6.528;2022-11-15T08:15:33;2.60;;;1.25;;
27857;SDS011;16852;51.446;6.528;2022-11-15T08:17:35;3.35;;;1.42;;
27857;SDS011;16852;51.446;6.528;2022-11-15T08:19:35;2.15;;;1.30;;
27857;SDS011;16852;51.446;6.528;2022-11-15T08:21:36;2.47;;;1.08;;
27857;SDS011;16852;51.446;6.528;2022-11-15T08:23:37;2.88;;;1.35;;
27857;SDS011;16852;51.446;6.528;2022-11-15T08:25:38;2.47;;;1.23;;
27857;SDS011;16852;51.446;6.528;2022-11-15T08:27:38;1.23;;;0.93;;
27857;SDS011;16852;51.446;6.528;2022-11-15T08:29:39;2.63;;;1.00;;
27857;SDS011;16852;51.446;6.528;2022-11-15T08:31:47;1.50;;;0.88;;
27857;SDS011;16852;51.446;6.528;2022-11-15T08:33:47;2.45;;;1.30;;
27857;SDS011;16852;51.446;6.528;2022-11-15T08:35:48;2.75;;;1.25;;
27857;SDS011;16852;51.446;6.528;2022-11-15T08:37:49;6.38;;;1.23;;
27857;SDS011;16852;51.446;6.528;2022-11-15T08:39:49;4.35;;;1.33;;
27857;SDS011;16852;51.446;6.528;2022-11-15T08:41:50;1.02;;;0.88;;
27857;SDS011;16852;51.446;6.528;2022-11-15T08:43:50;2.75;;;1.20;;
27857;SDS011;16852;51.446;6.528;2022-11-15T08:45:51;1.77;;;0.85;;
27857;SDS011;16852;51.446;6.528;2022-11-15T08:47:51;2.03;;;1.05;;
27857;SDS011;16852;51.446;6.528;2022-11-15T08:49:52;1.67;;;1.00;;
27857;SDS011;16852;51.446;6.528;2022-11-15T08:51:53;1.65;;;1.10;;
27857;SDS011;16852;51.446;6.528;2022-11-15T08:53:53;2.28;;;1.10;;
27857;SDS011;16852;51.446;6.528;2022-11-15T08:55:54;1.73;;;1.23;;
27857;SDS011;16852;51.446;6.528;2022-11-15T08:57:56;3.22;;;1.35;;
27857;SDS011;16852;51.446;6.528;2022-11-15T08:59:57;1.40;;;1.10;;
27857;SDS011;16852;51.446;6.528;2022-11-15T09:01:58;1.27;;;0.95;;
27857;SDS011;16852;51.446;6.528;2022-11-15T09:03:59;2.75;;;1.10;;
27857;SDS011;16852;51.446;6.528;2022-11-15T09:06:00;3.40;;;1.35;;
27857;SDS011;16852;51.446;6.528;2022-11-15T09:08:01;1.83;;;1.08;;
27857;SDS011;16852;51.446;6.528;2022-11-15T09:10:01;2.47;;;1.00;;
27857;SDS011;16852;51.446;6.528;2022-11-15T09:12:02;2.13;;;0.80;;
27857;SDS011;16852;51.446;6.528;2022-11-15T09:14:04;2.22;;;1.10;;
27857;SDS011;16852;51.446;6.528;2022-11-15T09:16:04;1.98;;;1.10;;
27857;SDS011;16852;51.446;6.528;2022-11-15T09:18:05;1.27;;;0.73;;
27857;SDS011;16852;51.446;6.528;2022-11-15T09:20:06;2.10;;;1.23;;
27857;SDS011;16852;51.446;6.528;2022-11-15T09:22:07;2.20;;;1.30;;
27857;SDS011;16852;51.446;6.528;2022-11-15T09:24:08;1.55;;;0.93;;
27857;SDS011;16852;51.446;6.528;2022-11-15T09:26:09;1.42;;;0.98;;
27857;SDS011;16852;51.446;6.528;2022-11-15T09:28:09;2.85;;;1.00;;
27857;SDS011;16852;51.446;6.528;2022-11-15T09:30:10;3.05;;;0.75;;
27857;SDS011;16852;51.446;6.528;2022-11-15T09:32:11;1.30;;;0.88;;
27857;SDS011;16852;51.446;6.528;2022-11-15T09:34:11;1.08;;;0.77;;
27857;SDS011;16852;51.446;6.528;2022-11-15T09:36:12;1.98;;;0.95;;
27857;SDS011;16852;51.446;6.528;2022-11-15T09:38:13;1.25;;;1.05;;
27857;SDS011;16852;51.446;6.528;2022-11-15T09:40:14;2.40;;;1.10;;
27857;SDS011;16852;51.446;6.528;2022-11-15T09:44:57;2.67;;;1.40;;
27857;SDS011;16852;51.446;6.528;2022-11-15T09:49:37;1.83;;;1.05;;
27857;SDS011;16852;51.446;6.528;2022-11-15T09:51:39;1.90;;;1.10;;
27857;SDS011;16852;51.446;6.528;2022-11-15T09:53:56;2.47;;;1.10;;
27857;SDS011;16852;51.446;6.528;2022-11-15T09:56:21;3.30;;;1.20;;
27857;SDS011;16852;51.446;6.528;2022-11-15T10:00:44;2.30;;;0.85;;
27857;SDS011;16852;51.446;6.528;2022-11-15T10:05:16;1.60;;;0.98;;
27857;SDS011;16852;51.446;6.528;2022-11-15T10:12:35;2.08;;;0.98;;
27857;SDS011;16852;51.446;6.528;2022-11-15T10:14:35;1.73;;;0.93;;
27857;SDS011;16852;51.446;6.528;2022-11-15T10:16:48;3.70;;;0.95;;
27857;SDS011;16852;51.446;6.528;2022-11-15T10:19:14;4.20;;;1.13;;
27857;SDS011;16852;51.446;6.528;2022-11-15T10:21:25;2.67;;;1.23;;
27857;SDS011;16852;51.446;6.528;2022-11-15T10:23:37;1.58;;;1.00;;
27857;SDS011;16852;51.446;6.528;2022-11-15T10:25:38;1.92;;;1.10;;
27857;SDS011;16852;51.446;6.528;2022-11-15T10:27:40;3.63;;;1.00;;
27857;SDS011;16852;51.446;6.528;2022-11-15T10:29:42;1.92;;;1.15;;
27857;SDS011;16852;51.446;6.528;2022-11-15T10:31:47;3.22;;;1.40;;
27857;SDS011;16852;51.446;6.528;2022-11-15T10:33:48;1.75;;;1.20;;
27857;SDS011;16852;51.446;6.528;2022-11-15T10:35:58;4.32;;;1.58;;
27857;SDS011;16852;51.446;6.528;2022-11-15T10:38:10;4.50;;;1.20;;
27857;SDS011;16852;51.446;6.528;2022-11-15T10:40:15;2.15;;;1.45;;
27857;SDS011;16852;51.446;6.528;2022-11-15T10:42:26;2.65;;;1.60;;
27857;SDS011;16852;51.446;6.528;2022-11-15T10:44:31;2.42;;;1.33;;
27857;SDS011;16852;51.446;6.528;2022-11-15T10:46:32;2.40;;;1.20;;
27857;SDS011;16852;51.446;6.528;2022-11-15T10:48:37;4.75;;;1.33;;
27857;SDS011;16852;51.446;6.528;2022-11-15T10:50:42;3.45;;;1.42;;
27857;SDS011;16852;51.446;6.528;2022-11-15T10:52:45;2.65;;;1.05;;
27857;SDS011;16852;51.446;6.528;2022-11-15T10:54:47;3.95;;;1.52;;
27857;SDS011;16852;51.446;6.528;2022-11-15T10:56:52;3.03;;;1.50;;
27857;SDS011;16852;51.446;6.528;2022-11-15T10:58:56;2.33;;;1.20;;
27857;SDS011;16852;51.446;6.528;2022-11-15T11:01:08;5.27;;;1.43;;
27857;SDS011;16852;51.446;6.528;2022-11-15T11:03:35;3.50;;;1.40;;
27857;SDS011;16852;51.446;6.528;2022-11-15T11:05:40;2.95;;;1.17;;
27857;SDS011;16852;51.446;6.528;2022-11-15T11:07:41;4.47;;;1.50;;
27857;SDS011;16852;51.446;6.528;2022-11-15T11:10:05;3.22;;;1.38;;
27857;SDS011;16852;51.446;6.528;2022-11-15T11:12:19;4.30;;;1.40;;
27857;SDS011;16852;51.446;6.528;2022-11-15T11:14:33;3.17;;;1.20;;
27857;SDS011;16852;51.446;6.528;2022-11-15T11:16:41;2.58;;;1.33;;
27857;SDS011;16852;51.446;6.528;2022-11-15T11:18:54;5.03;;;1.40;;
27857;SDS011;16852;51.446;6.528;2022-11-15T11:21:03;5.55;;;1.73;;
27857;SDS011;16852;51.446;6.528;2022-11-15T11:39:41;2.08;;;1.08;;
27857;SDS011;16852;51.446;6.528;2022-11-15T11:44:48;3.03;;;1.40;;
27857;SDS011;16852;51.446;6.528;2022-11-15T11:49:36;1.85;;;1.30;;
27857;SDS011;16852;51.446;6.528;2022-11-15T11:51:55;2.88;;;1.17;;
27857;SDS011;16852;51.446;6.528;2022-11-15T11:54:03;2.08;;;1.27;;
27857;SDS011;16852;51.446;6.528;2022-11-15T11:56:28;4.40;;;1.13;;
27857;SDS011;16852;51.446;6.528;2022-11-15T11:58:37;7.97;;;1.10;;
27857;SDS011;16852;51.446;6.528;2022-11-15T12:00:43;2.67;;;0.98;;
27857;SDS011;16852;51.446;6.528;2022-11-15T12:07:37;5.20;;;1.45;;
27857;SDS011;16852;51.446;6.528;2022-11-15T12:11:51;2.15;;;0.82;;
27857;SDS011;16852;51.446;6.528;2022-11-15T12:13:58;3.35;;;0.90;;
27857;SDS011;16852;51.446;6.528;2022-11-15T12:16:05;2.42;;;1.02;;
27857;SDS011;16852;51.446;6.528;2022-11-15T12:18:15;1.70;;;0.90;;
27857;SDS011;16852;51.446;6.528;2022-11-15T12:20:23;1.95;;;0.88;;
27857;SDS011;16852;51.446;6.528;2022-11-15T12:24:53;1.42;;;0.63;;
27857;SDS011;16852;51.446;6.528;2022-11-15T12:27:05;3.60;;;0.93;;
27857;SDS011;16852;51.446;6.528;2022-11-15T12:29:49;3.92;;;1.25;;
27857;SDS011;16852;51.446;6.528;2022-11-15T12:32:03;2.45;;;1.10;;
27857;SDS011;16852;51.446;6.528;2022-11-15T12:38:49;2.42;;;1.00;;
27857;SDS011;16852;51.446;6.528;2022-11-15T12:41:18;3.45;;;0.68;;
27857;SDS011;16852;51.446;6.528;2022-11-15T12:45:42;3.50;;;1.10;;
27857;SDS011;16852;51.446;6.528;2022-11-15T12:47:44;2.03;;;1.02;;
27857;SDS011;16852;51.446;6.528;2022-11-15T12:49:45;1.98;;;0.80;;
27857;SDS011;16852;51.446;6.528;2022-11-15T12:53:47;2.05;;;0.75;;
27857;SDS011;16852;51.446;6.528;2022-11-15T12:58:40;2.40;;;1.10;;
27857;SDS011;16852;51.446;6.528;2022-11-15T13:00:43;2.45;;;1.00;;
27857;SDS011;16852;51.446;6.528;2022-11-15T13:02:44;1.98;;;1.23;;
27857;SDS011;16852;51.446;6.528;2022-11-15T13:04:46;2.95;;;0.77;;
27857;SDS011;16852;51.446;6.528;2022-11-15T13:07:04;3.58;;;0.98;;
27857;SDS011;16852;51.446;6.528;2022-11-15T13:11:42;2.03;;;0.75;;
27857;SDS011;16852;51.446;6.528;2022-11-15T13:13:46;2.80;;;0.70;;
27857;SDS011;16852;51.446;6.528;2022-11-15T13:17:54;1.35;;;0.90;;
27857;SDS011;16852;51.446;6.528;2022-11-15T13:22:04;4.07;;;0.90;;
27857;SDS011;16852;51.446;6.528;2022-11-15T13:24:27;2.85;;;1.08;;
27857;SDS011;16852;51.446;6.528;2022-11-15T13:26:28;2.08;;;0.80;;
27857;SDS011;16852;51.446;6.528;2022-11-15T13:30:52;2.75;;;0.80;;
27857;SDS011;16852;51.446;6.528;2022-11-15T13:32:54;2.03;;;1.00;;
27857;SDS011;16852;51.446;6.528;2022-11-15T13:34:56;7.25;;;1.17;;
27857;SDS011;16852;51.446;6.528;2022-11-15T13:36:56;2.97;;;0.95;;
27857;SDS011;16852;51.446;6.528;2022-11-15T13:39:04;1.20;;;0.80;;
27857;SDS011;16852;51.446;6.528;2022-11-15T13:41:22;1.95;;;0.80;;
27857;SDS011;16852;51.446;6.528;2022-11-15T13:43:29;2.15;;;0.93;;
27857;SDS011;16852;51.446;6.528;2022-11-15T13:45:34;3.53;;;1.15;;
27857;SDS011;16852;51.446;6.528;2022-11-15T13:47:34;5.68;;;1.17;;
27857;SDS011;16852;51.446;6.528;2022-11-15T13:49:35;2.47;;;0.77;;